sensor_id;sensor_type;location;lat;lon;timestamp;P1;durP1;ratioP1;P2;durP2;ratioP2
81830;SDS011;71268;44.086;3.070;2023-12-14T00:01:11;0.38;;;0.10;;
81830;SDS011;71268;44.086;3.070;2023-12-14T00:03:38;0.20;;;0.00;;
81830;SDS011;71268;44.086;3.070;2023-12-14T00:06:06;0.00;;;0.00;;
81830;SDS011;71268;44.086;3.070;2023-12-14T00:08:32;0.55;;;0.00;;
81830;SDS011;71268;44.086;3.070;2023-12-14T00:11:02;0.38;;;0.03;;
81830;SDS011;71268;44.086;3.070;2023-12-14T00:13:28;0.40;;;0.13;;
81830;SDS011;71268;44.086;3.070;2023-12-14T00:15:54;0.10;;;0.05;;
81830;SDS011;71268;44.086;3.070;2023-12-14T00:18:20;0.40;;;0.13;;
81830;SDS011;71268;44.086;3.070;2023-12-14T00:20:46;0.57;;;0.20;;
81830;SDS011;71268;44.086;3.070;2023-12-14T00:23:13;0.63;;;0.10;;
81830;SDS011;71268;44.086;3.070;2023-12-14T00:25:39;0.25;;;0.13;;
81830;SDS011;71268;44.086;3.070;2023-12-14T00:28:05;0.43;;;0.10;;
81830;SDS011;71268;44.086;3.070;2023-12-14T00:30:31;0.10;;;0.10;;
81830;SDS011;71268;44.086;3.070;2023-12-14T00:32:57;2.97;;;0.17;;
81830;SDS011;71268;44.086;3.070;2023-12-14T00:35:23;0.43;;;0.00;;
81830;SDS011;71268;44.086;3.070;2023-12-14T00:37:49;0.20;;;0.10;;
81830;SDS011;71268;44.086;3.070;2023-12-14T00:40:15;0.05;;;0.05;;
81830;SDS011;71268;44.086;3.070;2023-12-14T00:42:41;0.20;;;0.03;;
81830;SDS011;71268;44.086;3.070;2023-12-14T00:45:07;1.10;;;0.10;;
81830;SDS011;71268;44.086;3.070;2023-12-14T00:47:34;0.00;;;0.00;;
81830;SDS011;71268;44.086;3.070;2023-12-14T00:50:00;0.93;;;0.10;;
81830;SDS011;71268;44.086;3.070;2023-12-14T00:52:26;0.40;;;0.10;;
81830;SDS011;71268;44.086;3.070;2023-12-14T00:54:52;1.65;;;0.32;;
81830;SDS011;71268;44.086;3.070;2023-12-14T00:57:18;0.00;;;0.00;;
81830;SDS011;71268;44.086;3.070;2023-12-14T00:59:44;0.15;;;0.00;;
81830;SDS011;71268;44.086;3.070;2023-12-14T01:02:10;0.10;;;0.10;;
81830;SDS011;71268;44.086;3.070;2023-12-14T01:04:36;0.38;;;0.10;;
81830;SDS011;71268;44.086;3.070;2023-12-14T01:07:03;0.57;;;0.30;;
81830;SDS011;71268;44.086;3.070;2023-12-14T01:09:29;0.38;;;0.10;;
81830;SDS011;71268;44.086;3.070;2023-12-14T01:11:55;0.32;;;0.10;;
81830;SDS011;71268;44.086;3.070;2023-12-14T01:14:21;0.47;;;0.17;;
81830;SDS011;71268;44.086;3.070;2023-12-14T01:16:47;0.25;;;0.13;;
81830;SDS011;71268;44.086;3.070;2023-12-14T01:19:13;0.25;;;0.10;;
81830;SDS011;71268;44.086;3.070;2023-12-14T01:21:39;1.10;;;0.08;;
81830;SDS011;71268;44.086;3.070;2023-12-14T01:24:05;0.25;;;0.10;;
81830;SDS011;71268;44.086;3.070;2023-12-14T01:26:31;0.17;;;0.03;;
81830;SDS011;71268;44.086;3.070;2023-12-14T01:28:57;0.30;;;0.17;;
81830;SDS011;71268;44.086;3.070;2023-12-14T01:31:26;0.35;;;0.10;;
81830;SDS011;71268;44.086;3.070;2023-12-14T01:33:52;1.35;;;0.30;;
81830;SDS011;71268;44.086;3.070;2023-12-14T01:36:21;0.05;;;0.00;;
81830;SDS011;71268;44.086;3.070;2023-12-14T01:38:48;0.32;;;0.20;;
81830;SDS011;71268;44.086;3.070;2023-12-14T01:41:14;0.55;;;0.10;;
81830;SDS011;71268;44.086;3.070;2023-12-14T01:43:40;0.55;;;0.10;;
81830;SDS011;71268;44.086;3.070;2023-12-14T01:46:06;0.55;;;0.20;;
81830;SDS011;71268;44.086;3.070;2023-12-14T01:48:32;0.17;;;0.00;;
81830;SDS011;71268;44.086;3.070;2023-12-14T01:50:58;0.30;;;0.10;;
81830;SDS011;71268;44.086;3.070;2023-12-14T01:53:24;0.35;;;0.20;;
81830;SDS011;71268;44.086;3.070;2023-12-14T01:55:50;0.10;;;0.00;;
81830;SDS011;71268;44.086;3.070;2023-12-14T01:58:16;0.30;;;0.20;;
81830;SDS011;71268;44.086;3.070;2023-12-14T02:00:44;0.22;;;0.10;;
81830;SDS011;71268;44.086;3.070;2023-12-14T02:03:12;0.08;;;0.00;;
81830;SDS011;71268;44.086;3.070;2023-12-14T02:05:38;0.25;;;0.10;;
81830;SDS011;71268;44.086;3.070;2023-12-14T02:08:04;0.40;;;0.10;;
81830;SDS011;71268;44.086;3.070;2023-12-14T02:10:30;0.05;;;0.00;;
81830;SDS011;71268;44.086;3.070;2023-12-14T02:12:56;0.30;;;0.08;;
81830;SDS011;71268;44.086;3.070;2023-12-14T02:15:22;0.50;;;0.10;;
81830;SDS011;71268;44.086;3.070;2023-12-14T02:17:48;0.10;;;0.10;;
81830;SDS011;71268;44.086;3.070;2023-12-14T02:20:14;0.13;;;0.00;;
81830;SDS011;71268;44.086;3.070;2023-12-14T02:22:53;0.08;;;0.00;;
81830;SDS011;71268;44.086;3.070;2023-12-14T02:25:20;0.20;;;0.00;;
81830;SDS011;71268;44.086;3.070;2023-12-14T02:27:46;0.10;;;0.00;;
81830;SDS011;71268;44.086;3.070;2023-12-14T02:30:12;0.28;;;0.10;;
81830;SDS011;71268;44.086;3.070;2023-12-14T02:32:39;0.13;;;0.00;;
81830;SDS011;71268;44.086;3.070;2023-12-14T02:35:05;0.30;;;0.08;;
81830;SDS011;71268;44.086;3.070;2023-12-14T02:37:32;0.00;;;0.00;;
81830;SDS011;71268;44.086;3.070;2023-12-14T02:39:58;0.20;;;0.00;;
81830;SDS011;71268;44.086;3.070;2023-12-14T02:42:25;0.20;;;0.00;;
81830;SDS011;71268;44.086;3.070;2023-12-14T02:44:53;0.00;;;0.00;;
81830;SDS011;71268;44.086;3.070;2023-12-14T02:47:19;0.20;;;0.00;;
81830;SDS011;71268;44.086;3.070;2023-12-14T02:49:45;0.10;;;0.00;;
81830;SDS011;71268;44.086;3.070;2023-12-14T02:52:11;0.38;;;0.13;;
81830;SDS011;71268;44.086;3.070;2023-12-14T02:54:38;0.30;;;0.10;;
81830;SDS011;71268;44.086;3.070;2023-12-14T02:57:04;0.35;;;0.17;;
81830;SDS011;71268;44.086;3.070;2023-12-14T02:59:30;0.65;;;0.03;;
81830;SDS011;71268;44.086;3.070;2023-12-14T03:01:56;0.80;;;0.20;;
81830;SDS011;71268;44.086;3.070;2023-12-14T03:04:22;0.82;;;0.57;;
81830;SDS011;71268;44.086;3.070;2023-12-14T03:06:48;0.30;;;0.10;;
81830;SDS011;71268;44.086;3.070;2023-12-14T03:09:14;0.35;;;0.20;;
81830;SDS011;71268;44.086;3.070;2023-12-14T03:11:40;0.20;;;0.10;;
81830;SDS011;71268;44.086;3.070;2023-12-14T03:14:06;0.25;;;0.20;;
81830;SDS011;71268;44.086;3.070;2023-12-14T03:16:32;0.32;;;0.13;;
81830;SDS011;71268;44.086;3.070;2023-12-14T03:19:00;1.20;;;0.30;;
81830;SDS011;71268;44.086;3.070;2023-12-14T03:21:26;1.20;;;0.20;;
81830;SDS011;71268;44.086;3.070;2023-12-14T03:23:52;0.28;;;0.10;;
81830;SDS011;71268;44.086;3.070;2023-12-14T03:26:18;0.75;;;0.20;;
81830;SDS011;71268;44.086;3.070;2023-12-14T03:28:44;0.68;;;0.30;;
81830;SDS011;71268;44.086;3.070;2023-12-14T03:31:11;0.95;;;0.20;;
81830;SDS011;71268;44.086;3.070;2023-12-14T03:33:41;0.57;;;0.20;;
81830;SDS011;71268;44.086;3.070;2023-12-14T03:36:07;0.47;;;0.30;;
81830;SDS011;71268;44.086;3.070;2023-12-14T03:38:33;0.40;;;0.20;;
81830;SDS011;71268;44.086;3.070;2023-12-14T03:40:59;0.45;;;0.10;;
81830;SDS011;71268;44.086;3.070;2023-12-14T03:43:26;1.75;;;1.50;;
81830;SDS011;71268;44.086;3.070;2023-12-14T03:45:52;0.68;;;0.15;;
81830;SDS011;71268;44.086;3.070;2023-12-14T03:48:18;0.65;;;0.28;;
81830;SDS011;71268;44.086;3.070;2023-12-14T03:50:44;0.50;;;0.20;;
81830;SDS011;71268;44.086;3.070;2023-12-14T03:53:10;2.08;;;0.20;;
81830;SDS011;71268;44.086;3.070;2023-12-14T03:55:36;1.45;;;0.20;;
81830;SDS011;71268;44.086;3.070;2023-12-14T03:58:02;0.40;;;0.20;;
81830;SDS011;71268;44.086;3.070;2023-12-14T04:00:28;4.80;;;0.40;;
81830;SDS011;71268;44.086;3.070;2023-12-14T04:02:54;1.00;;;0.30;;
81830;SDS011;71268;44.086;3.070;2023-12-14T04:05:20;1.13;;;0.32;;
81830;SDS011;71268;44.086;3.070;2023-12-14T04:07:46;1.40;;;0.30;;
81830;SDS011;71268;44.086;3.070;2023-12-14T04:10:12;0.82;;;0.30;;
81830;SDS011;71268;44.086;3.070;2023-12-14T04:12:39;1.77;;;0.43;;
81830;SDS011;71268;44.086;3.070;2023-12-14T04:15:05;1.27;;;0.30;;
81830;SDS011;71268;44.086;3.070;2023-12-14T04:17:32;1.88;;;0.40;;
81830;SDS011;71268;44.086;3.070;2023-12-14T04:19:58;0.47;;;0.32;;
81830;SDS011;71268;44.086;3.070;2023-12-14T04:22:25;1.77;;;0.30;;
81830;SDS011;71268;44.086;3.070;2023-12-14T04:24:51;1.02;;;0.32;;
81830;SDS011;71268;44.086;3.070;2023-12-14T04:27:17;0.60;;;0.20;;
81830;SDS011;71268;44.086;3.070;2023-12-14T04:29:43;1.00;;;0.30;;
81830;SDS011;71268;44.086;3.070;2023-12-14T04:32:09;1.27;;;0.40;;
81830;SDS011;71268;44.086;3.070;2023-12-14T04:34:36;1.38;;;0.50;;
81830;SDS011;71268;44.086;3.070;2023-12-14T04:37:02;3.67;;;0.70;;
81830;SDS011;71268;44.086;3.070;2023-12-14T04:39:28;0.93;;;0.38;;
81830;SDS011;71268;44.086;3.070;2023-12-14T04:41:54;1.00;;;0.40;;
81830;SDS011;71268;44.086;3.070;2023-12-14T04:44:20;0.75;;;0.38;;
81830;SDS011;71268;44.086;3.070;2023-12-14T04:46:49;0.95;;;0.38;;
81830;SDS011;71268;44.086;3.070;2023-12-14T04:49:16;0.73;;;0.30;;
81830;SDS011;71268;44.086;3.070;2023-12-14T04:51:42;0.55;;;0.20;;
81830;SDS011;71268;44.086;3.070;2023-12-14T04:54:08;1.20;;;0.50;;
81830;SDS011;71268;44.086;3.070;2023-12-14T04:56:34;1.02;;;0.32;;
81830;SDS011;71268;44.086;3.070;2023-12-14T04:59:00;1.10;;;0.47;;
81830;SDS011;71268;44.086;3.070;2023-12-14T05:01:27;1.42;;;0.30;;
81830;SDS011;71268;44.086;3.070;2023-12-14T05:03:53;0.73;;;0.35;;
81830;SDS011;71268;44.086;3.070;2023-12-14T05:06:20;2.72;;;0.93;;
81830;SDS011;71268;44.086;3.070;2023-12-14T05:08:46;1.13;;;0.28;;
81830;SDS011;71268;44.086;3.070;2023-12-14T05:11:12;0.93;;;0.40;;
81830;SDS011;71268;44.086;3.070;2023-12-14T05:13:38;1.10;;;0.50;;
81830;SDS011;71268;44.086;3.070;2023-12-14T05:16:05;0.47;;;0.20;;
81830;SDS011;71268;44.086;3.070;2023-12-14T05:18:31;0.63;;;0.30;;
81830;SDS011;71268;44.086;3.070;2023-12-14T05:20:57;0.98;;;0.30;;
81830;SDS011;71268;44.086;3.070;2023-12-14T05:23:23;0.70;;;0.22;;
81830;SDS011;71268;44.086;3.070;2023-12-14T05:25:49;0.45;;;0.13;;
81830;SDS011;71268;44.086;3.070;2023-12-14T05:28:15;1.48;;;0.30;;
81830;SDS011;71268;44.086;3.070;2023-12-14T05:30:41;1.55;;;0.57;;
81830;SDS011;71268;44.086;3.070;2023-12-14T05:33:08;0.82;;;0.43;;
81830;SDS011;71268;44.086;3.070;2023-12-14T05:35:34;0.65;;;0.28;;
81830;SDS011;71268;44.086;3.070;2023-12-14T05:38:00;0.65;;;0.20;;
81830;SDS011;71268;44.086;3.070;2023-12-14T05:40:26;1.92;;;0.47;;
81830;SDS011;71268;44.086;3.070;2023-12-14T05:42:52;0.73;;;0.43;;
81830;SDS011;71268;44.086;3.070;2023-12-14T05:45:18;1.25;;;0.40;;
81830;SDS011;71268;44.086;3.070;2023-12-14T05:47:44;1.25;;;0.63;;
81830;SDS011;71268;44.086;3.070;2023-12-14T05:50:10;0.60;;;0.30;;
81830;SDS011;71268;44.086;3.070;2023-12-14T05:52:37;1.35;;;0.63;;
81830;SDS011;71268;44.086;3.070;2023-12-14T05:55:06;1.00;;;0.28;;
81830;SDS011;71268;44.086;3.070;2023-12-14T05:57:33;1.83;;;0.30;;
81830;SDS011;71268;44.086;3.070;2023-12-14T05:59:59;1.02;;;0.43;;
81830;SDS011;71268;44.086;3.070;2023-12-14T06:02:25;0.82;;;0.40;;
81830;SDS011;71268;44.086;3.070;2023-12-14T06:04:51;0.82;;;0.28;;
81830;SDS011;71268;44.086;3.070;2023-12-14T06:07:17;0.68;;;0.30;;
81830;SDS011;71268;44.086;3.070;2023-12-14T06:09:43;1.20;;;0.32;;
81830;SDS011;71268;44.086;3.070;2023-12-14T06:12:09;0.30;;;0.20;;
81830;SDS011;71268;44.086;3.070;2023-12-14T06:14:35;0.80;;;0.30;;
81830;SDS011;71268;44.086;3.070;2023-12-14T06:17:01;0.60;;;0.30;;
81830;SDS011;71268;44.086;3.070;2023-12-14T06:19:27;1.17;;;0.40;;
81830;SDS011;71268;44.086;3.070;2023-12-14T06:21:53;1.00;;;0.30;;
81830;SDS011;71268;44.086;3.070;2023-12-14T06:24:19;1.15;;;0.32;;
81830;SDS011;71268;44.086;3.070;2023-12-14T06:26:47;2.63;;;0.45;;
81830;SDS011;71268;44.086;3.070;2023-12-14T06:29:13;1.10;;;0.30;;
81830;SDS011;71268;44.086;3.070;2023-12-14T06:31:39;2.35;;;0.80;;
81830;SDS011;71268;44.086;3.070;2023-12-14T06:34:05;1.35;;;0.40;;
81830;SDS011;71268;44.086;3.070;2023-12-14T06:36:32;0.52;;;0.30;;
81830;SDS011;71268;44.086;3.070;2023-12-14T06:38:58;1.85;;;0.60;;
81830;SDS011;71268;44.086;3.070;2023-12-14T06:41:25;1.13;;;0.43;;
81830;SDS011;71268;44.086;3.070;2023-12-14T06:43:52;2.00;;;0.40;;
81830;SDS011;71268;44.086;3.070;2023-12-14T06:46:18;1.90;;;0.50;;
81830;SDS011;71268;44.086;3.070;2023-12-14T06:48:44;1.05;;;0.40;;
81830;SDS011;71268;44.086;3.070;2023-12-14T06:51:11;1.02;;;0.40;;
81830;SDS011;71268;44.086;3.070;2023-12-14T06:53:39;0.88;;;0.40;;
81830;SDS011;71268;44.086;3.070;2023-12-14T06:56:05;1.02;;;0.40;;
81830;SDS011;71268;44.086;3.070;2023-12-14T06:58:34;1.98;;;1.15;;
81830;SDS011;71268;44.086;3.070;2023-12-14T07:01:00;1.17;;;0.57;;
81830;SDS011;71268;44.086;3.070;2023-12-14T07:03:26;1.70;;;0.50;;
81830;SDS011;71268;44.086;3.070;2023-12-14T07:05:52;1.23;;;0.40;;
81830;SDS011;71268;44.086;3.070;2023-12-14T07:08:18;1.75;;;0.45;;
81830;SDS011;71268;44.086;3.070;2023-12-14T07:10:44;0.57;;;0.35;;
81830;SDS011;71268;44.086;3.070;2023-12-14T07:13:10;1.55;;;0.25;;
81830;SDS011;71268;44.086;3.070;2023-12-14T07:15:36;1.65;;;0.35;;
81830;SDS011;71268;44.086;3.070;2023-12-14T07:18:03;1.00;;;0.38;;
81830;SDS011;71268;44.086;3.070;2023-12-14T07:20:29;1.10;;;0.45;;
81830;SDS011;71268;44.086;3.070;2023-12-14T07:22:55;1.20;;;0.32;;
81830;SDS011;71268;44.086;3.070;2023-12-14T07:25:21;1.63;;;0.50;;
81830;SDS011;71268;44.086;3.070;2023-12-14T07:27:47;0.60;;;0.30;;
81830;SDS011;71268;44.086;3.070;2023-12-14T07:30:13;0.95;;;0.38;;
81830;SDS011;71268;44.086;3.070;2023-12-14T07:32:39;1.20;;;0.40;;
81830;SDS011;71268;44.086;3.070;2023-12-14T07:35:05;1.20;;;0.68;;
81830;SDS011;71268;44.086;3.070;2023-12-14T07:37:31;1.40;;;0.50;;
81830;SDS011;71268;44.086;3.070;2023-12-14T07:39:57;1.60;;;0.43;;
81830;SDS011;71268;44.086;3.070;2023-12-14T07:42:24;1.90;;;0.45;;
81830;SDS011;71268;44.086;3.070;2023-12-14T07:44:50;1.25;;;0.40;;
81830;SDS011;71268;44.086;3.070;2023-12-14T07:47:17;2.45;;;0.60;;
81830;SDS011;71268;44.086;3.070;2023-12-14T07:49:43;1.08;;;0.60;;
81830;SDS011;71268;44.086;3.070;2023-12-14T07:52:09;1.30;;;0.40;;
81830;SDS011;71268;44.086;3.070;2023-12-14T07:54:35;1.15;;;0.43;;
81830;SDS011;71268;44.086;3.070;2023-12-14T07:57:01;1.48;;;0.60;;
81830;SDS011;71268;44.086;3.070;2023-12-14T07:59:27;1.00;;;0.50;;
81830;SDS011;71268;44.086;3.070;2023-12-14T08:01:55;1.52;;;0.52;;
81830;SDS011;71268;44.086;3.070;2023-12-14T08:04:21;0.82;;;0.40;;
81830;SDS011;71268;44.086;3.070;2023-12-14T08:06:47;1.95;;;0.90;;
81830;SDS011;71268;44.086;3.070;2023-12-14T08:09:13;1.92;;;0.70;;
81830;SDS011;71268;44.086;3.070;2023-12-14T08:11:39;1.23;;;0.55;;
81830;SDS011;71268;44.086;3.070;2023-12-14T08:14:05;2.03;;;0.80;;
81830;SDS011;71268;44.086;3.070;2023-12-14T08:16:31;2.88;;;0.75;;
81830;SDS011;71268;44.086;3.070;2023-12-14T08:18:57;4.03;;;0.93;;
81830;SDS011;71268;44.086;3.070;2023-12-14T08:21:23;2.28;;;0.70;;
81830;SDS011;71268;44.086;3.070;2023-12-14T08:23:49;2.03;;;1.00;;
81830;SDS011;71268;44.086;3.070;2023-12-14T08:26:15;2.58;;;1.10;;
81830;SDS011;71268;44.086;3.070;2023-12-14T08:28:41;3.42;;;0.80;;
81830;SDS011;71268;44.086;3.070;2023-12-14T08:31:08;2.08;;;1.10;;
81830;SDS011;71268;44.086;3.070;2023-12-14T08:33:35;1.13;;;0.57;;
81830;SDS011;71268;44.086;3.070;2023-12-14T08:36:02;1.63;;;0.60;;
81830;SDS011;71268;44.086;3.070;2023-12-14T08:38:28;1.70;;;0.73;;
81830;SDS011;71268;44.086;3.070;2023-12-14T08:40:54;4.30;;;1.15;;
81830;SDS011;71268;44.086;3.070;2023-12-14T08:43:20;3.63;;;1.20;;
81830;SDS011;71268;44.086;3.070;2023-12-14T08:45:46;2.30;;;0.68;;
81830;SDS011;71268;44.086;3.070;2023-12-14T08:48:13;1.95;;;0.68;;
81830;SDS011;71268;44.086;3.070;2023-12-14T08:50:39;1.45;;;0.55;;
81830;SDS011;71268;44.086;3.070;2023-12-14T08:53:05;2.10;;;0.77;;
81830;SDS011;71268;44.086;3.070;2023-12-14T08:55:33;1.55;;;0.50;;
81830;SDS011;71268;44.086;3.070;2023-12-14T08:57:59;3.10;;;0.80;;
81830;SDS011;71268;44.086;3.070;2023-12-14T09:00:25;2.03;;;0.70;;
81830;SDS011;71268;44.086;3.070;2023-12-14T09:02:51;1.27;;;0.50;;
81830;SDS011;71268;44.086;3.070;2023-12-14T09:05:18;1.08;;;0.30;;
81830;SDS011;71268;44.086;3.070;2023-12-14T09:07:45;1.58;;;0.63;;
81830;SDS011;71268;44.086;3.070;2023-12-14T09:10:12;1.30;;;0.50;;
81830;SDS011;71268;44.086;3.070;2023-12-14T09:12:38;2.08;;;0.40;;
81830;SDS011;71268;44.086;3.070;2023-12-14T09:15:04;3.17;;;0.77;;
81830;SDS011;71268;44.086;3.070;2023-12-14T09:17:30;2.17;;;0.90;;
81830;SDS011;71268;44.086;3.070;2023-12-14T09:20:00;2.42;;;0.60;;
81830;SDS011;71268;44.086;3.070;2023-12-14T09:22:26;2.00;;;0.32;;
81830;SDS011;71268;44.086;3.070;2023-12-14T09:24:52;1.00;;;0.30;;
81830;SDS011;71268;44.086;3.070;2023-12-14T09:27:18;0.93;;;0.30;;
81830;SDS011;71268;44.086;3.070;2023-12-14T09:29:44;2.70;;;0.95;;
81830;SDS011;71268;44.086;3.070;2023-12-14T09:32:10;1.70;;;0.40;;
81830;SDS011;71268;44.086;3.070;2023-12-14T09:34:36;1.15;;;0.30;;
81830;SDS011;71268;44.086;3.070;2023-12-14T09:37:02;1.25;;;0.38;;
81830;SDS011;71268;44.086;3.070;2023-12-14T09:39:28;1.30;;;0.30;;
81830;SDS011;71268;44.086;3.070;2023-12-14T09:42:04;1.40;;;0.40;;
81830;SDS011;71268;44.086;3.070;2023-12-14T09:44:30;2.25;;;0.43;;
81830;SDS011;71268;44.086;3.070;2023-12-14T09:46:57;1.02;;;0.28;;
81830;SDS011;71268;44.086;3.070;2023-12-14T09:49:25;1.13;;;0.30;;
81830;SDS011;71268;44.086;3.070;2023-12-14T09:51:58;0.77;;;0.25;;
81830;SDS011;71268;44.086;3.070;2023-12-14T09:54:25;0.73;;;0.40;;
81830;SDS011;71268;44.086;3.070;2023-12-14T09:56:52;1.05;;;0.40;;
81830;SDS011;71268;44.086;3.070;2023-12-14T09:59:19;0.77;;;0.30;;
81830;SDS011;71268;44.086;3.070;2023-12-14T10:01:45;0.65;;;0.43;;
81830;SDS011;71268;44.086;3.070;2023-12-14T10:04:15;1.33;;;0.40;;
81830;SDS011;71268;44.086;3.070;2023-12-14T10:06:42;0.60;;;0.30;;
81830;SDS011;71268;44.086;3.070;2023-12-14T10:09:08;0.95;;;0.22;;
81830;SDS011;71268;44.086;3.070;2023-12-14T10:11:35;0.35;;;0.13;;
81830;SDS011;71268;44.086;3.070;2023-12-14T10:14:02;0.80;;;0.30;;
81830;SDS011;71268;44.086;3.070;2023-12-14T10:16:32;0.95;;;0.52;;
81830;SDS011;71268;44.086;3.070;2023-12-14T10:18:58;1.33;;;0.50;;
81830;SDS011;71268;44.086;3.070;2023-12-14T10:21:28;1.73;;;0.60;;
81830;SDS011;71268;44.086;3.070;2023-12-14T10:23:57;1.33;;;0.50;;
81830;SDS011;71268;44.086;3.070;2023-12-14T10:26:24;2.03;;;0.75;;
81830;SDS011;71268;44.086;3.070;2023-12-14T10:28:51;0.90;;;0.40;;
81830;SDS011;71268;44.086;3.070;2023-12-14T10:31:20;0.88;;;0.45;;
81830;SDS011;71268;44.086;3.070;2023-12-14T10:33:46;1.55;;;0.60;;
81830;SDS011;71268;44.086;3.070;2023-12-14T10:36:13;1.05;;;0.43;;
81830;SDS011;71268;44.086;3.070;2023-12-14T10:38:39;0.60;;;0.30;;
81830;SDS011;71268;44.086;3.070;2023-12-14T10:41:06;0.82;;;0.35;;
81830;SDS011;71268;44.086;3.070;2023-12-14T10:43:34;1.48;;;0.30;;
81830;SDS011;71268;44.086;3.070;2023-12-14T10:46:01;1.00;;;0.35;;
81830;SDS011;71268;44.086;3.070;2023-12-14T10:48:29;0.57;;;0.30;;
81830;SDS011;71268;44.086;3.070;2023-12-14T10:50:56;2.15;;;0.70;;
81830;SDS011;71268;44.086;3.070;2023-12-14T10:53:23;1.40;;;0.30;;
81830;SDS011;71268;44.086;3.070;2023-12-14T10:55:50;0.47;;;0.20;;
81830;SDS011;71268;44.086;3.070;2023-12-14T10:58:17;0.68;;;0.32;;
81830;SDS011;71268;44.086;3.070;2023-12-14T11:00:48;1.58;;;0.30;;
81830;SDS011;71268;44.086;3.070;2023-12-14T11:03:23;0.75;;;0.20;;
81830;SDS011;71268;44.086;3.070;2023-12-14T11:05:49;1.05;;;0.40;;
81830;SDS011;71268;44.086;3.070;2023-12-14T11:08:15;0.73;;;0.30;;
81830;SDS011;71268;44.086;3.070;2023-12-14T11:10:43;1.23;;;0.52;;
81830;SDS011;71268;44.086;3.070;2023-12-14T11:13:10;0.98;;;0.30;;
81830;SDS011;71268;44.086;3.070;2023-12-14T11:15:41;1.50;;;0.40;;
81830;SDS011;71268;44.086;3.070;2023-12-14T11:23:15;1.38;;;0.73;;
81830;SDS011;71268;44.086;3.070;2023-12-14T11:25:48;1.15;;;0.32;;
81830;SDS011;71268;44.086;3.070;2023-12-14T11:28:14;0.95;;;0.90;;
81830;SDS011;71268;44.086;3.070;2023-12-14T11:30:42;0.50;;;0.20;;
81830;SDS011;71268;44.086;3.070;2023-12-14T11:33:10;0.70;;;0.40;;
81830;SDS011;71268;44.086;3.070;2023-12-14T11:35:36;1.35;;;0.40;;
81830;SDS011;71268;44.086;3.070;2023-12-14T11:38:02;1.05;;;0.43;;
81830;SDS011;71268;44.086;3.070;2023-12-14T11:40:35;0.65;;;0.40;;
81830;SDS011;71268;44.086;3.070;2023-12-14T11:43:01;1.65;;;0.90;;
81830;SDS011;71268;44.086;3.070;2023-12-14T11:45:38;0.65;;;0.50;;
81830;SDS011;71268;44.086;3.070;2023-12-14T11:48:04;1.02;;;0.50;;
81830;SDS011;71268;44.086;3.070;2023-12-14T11:50:34;1.48;;;0.50;;
81830;SDS011;71268;44.086;3.070;2023-12-14T11:53:00;3.17;;;0.52;;
81830;SDS011;71268;44.086;3.070;2023-12-14T11:55:28;1.98;;;0.52;;
81830;SDS011;71268;44.086;3.070;2023-12-14T11:57:55;2.20;;;0.50;;
81830;SDS011;71268;44.086;3.070;2023-12-14T12:00:27;1.15;;;0.40;;
81830;SDS011;71268;44.086;3.070;2023-12-14T12:03:10;1.27;;;0.43;;
81830;SDS011;71268;44.086;3.070;2023-12-14T12:05:47;0.82;;;0.30;;
81830;SDS011;71268;44.086;3.070;2023-12-14T12:08:14;0.93;;;0.30;;
81830;SDS011;71268;44.086;3.070;2023-12-14T12:10:41;2.08;;;0.50;;
81830;SDS011;71268;44.086;3.070;2023-12-14T12:13:12;1.98;;;0.65;;
81830;SDS011;71268;44.086;3.070;2023-12-14T12:15:39;2.47;;;0.95;;
81830;SDS011;71268;44.086;3.070;2023-12-14T12:18:08;1.52;;;0.50;;
81830;SDS011;71268;44.086;3.070;2023-12-14T12:20:35;1.58;;;0.77;;
81830;SDS011;71268;44.086;3.070;2023-12-14T12:23:01;2.60;;;0.82;;
81830;SDS011;71268;44.086;3.070;2023-12-14T12:25:28;1.50;;;0.95;;
81830;SDS011;71268;44.086;3.070;2023-12-14T12:27:54;1.58;;;0.60;;
81830;SDS011;71268;44.086;3.070;2023-12-14T12:30:21;1.05;;;0.50;;
81830;SDS011;71268;44.086;3.070;2023-12-14T12:32:48;1.15;;;0.60;;
81830;SDS011;71268;44.086;3.070;2023-12-14T12:35:16;1.83;;;0.60;;
81830;SDS011;71268;44.086;3.070;2023-12-14T12:37:42;1.52;;;0.50;;
81830;SDS011;71268;44.086;3.070;2023-12-14T12:40:08;1.13;;;0.32;;
81830;SDS011;71268;44.086;3.070;2023-12-14T12:42:34;1.13;;;0.60;;
81830;SDS011;71268;44.086;3.070;2023-12-14T12:45:00;1.15;;;0.40;;
81830;SDS011;71268;44.086;3.070;2023-12-14T12:47:26;0.55;;;0.43;;
81830;SDS011;71268;44.086;3.070;2023-12-14T12:49:52;2.35;;;0.70;;
81830;SDS011;71268;44.086;3.070;2023-12-14T12:52:19;1.30;;;0.50;;
81830;SDS011;71268;44.086;3.070;2023-12-14T12:54:45;1.00;;;0.40;;
81830;SDS011;71268;44.086;3.070;2023-12-14T12:57:11;1.00;;;0.60;;
81830;SDS011;71268;44.086;3.070;2023-12-14T12:59:37;0.95;;;0.50;;
81830;SDS011;71268;44.086;3.070;2023-12-14T13:02:04;1.52;;;0.50;;
81830;SDS011;71268;44.086;3.070;2023-12-14T13:04:30;1.48;;;0.52;;
81830;SDS011;71268;44.086;3.070;2023-12-14T13:06:56;2.92;;;1.00;;
81830;SDS011;71268;44.086;3.070;2023-12-14T13:09:22;2.78;;;1.02;;
81830;SDS011;71268;44.086;3.070;2023-12-14T13:11:49;2.05;;;0.73;;
81830;SDS011;71268;44.086;3.070;2023-12-14T13:14:15;2.55;;;0.60;;
81830;SDS011;71268;44.086;3.070;2023-12-14T13:16:41;1.75;;;0.80;;
81830;SDS011;71268;44.086;3.070;2023-12-14T13:19:08;2.53;;;0.63;;
81830;SDS011;71268;44.086;3.070;2023-12-14T13:21:34;2.20;;;0.70;;
81830;SDS011;71268;44.086;3.070;2023-12-14T13:24:00;1.95;;;0.50;;
81830;SDS011;71268;44.086;3.070;2023-12-14T13:26:26;2.05;;;0.60;;
81830;SDS011;71268;44.086;3.070;2023-12-14T13:28:52;1.80;;;0.50;;
81830;SDS011;71268;44.086;3.070;2023-12-14T13:31:19;1.35;;;0.55;;
81830;SDS011;71268;44.086;3.070;2023-12-14T13:33:48;1.25;;;0.40;;
81830;SDS011;71268;44.086;3.070;2023-12-14T13:36:19;1.52;;;0.30;;
81830;SDS011;71268;44.086;3.070;2023-12-14T13:38:45;1.42;;;0.50;;
81830;SDS011;71268;44.086;3.070;2023-12-14T13:41:12;0.90;;;0.40;;
81830;SDS011;71268;44.086;3.070;2023-12-14T13:43:38;1.58;;;0.32;;
81830;SDS011;71268;44.086;3.070;2023-12-14T13:46:04;2.75;;;0.68;;
81830;SDS011;71268;44.086;3.070;2023-12-14T13:48:30;1.23;;;0.40;;
81830;SDS011;71268;44.086;3.070;2023-12-14T13:50:56;1.63;;;0.40;;
81830;SDS011;71268;44.086;3.070;2023-12-14T13:53:22;1.35;;;0.60;;
81830;SDS011;71268;44.086;3.070;2023-12-14T13:55:50;1.00;;;0.55;;
81830;SDS011;71268;44.086;3.070;2023-12-14T13:58:16;1.20;;;0.52;;
81830;SDS011;71268;44.086;3.070;2023-12-14T14:00:45;1.20;;;0.50;;
81830;SDS011;71268;44.086;3.070;2023-12-14T14:03:12;1.10;;;0.40;;
81830;SDS011;71268;44.086;3.070;2023-12-14T14:05:38;1.00;;;0.40;;
81830;SDS011;71268;44.086;3.070;2023-12-14T14:08:04;1.08;;;0.50;;
81830;SDS011;71268;44.086;3.070;2023-12-14T14:10:30;0.95;;;0.43;;
81830;SDS011;71268;44.086;3.070;2023-12-14T14:12:56;1.58;;;0.50;;
81830;SDS011;71268;44.086;3.070;2023-12-14T14:15:23;1.38;;;0.55;;
81830;SDS011;71268;44.086;3.070;2023-12-14T14:17:49;1.13;;;0.60;;
81830;SDS011;71268;44.086;3.070;2023-12-14T14:20:17;1.25;;;0.57;;
81830;SDS011;71268;44.086;3.070;2023-12-14T14:22:43;0.77;;;0.40;;
81830;SDS011;71268;44.086;3.070;2023-12-14T14:25:09;2.17;;;0.70;;
81830;SDS011;71268;44.086;3.070;2023-12-14T14:27:35;1.20;;;0.43;;
81830;SDS011;71268;44.086;3.070;2023-12-14T14:30:01;0.82;;;0.35;;
81830;SDS011;71268;44.086;3.070;2023-12-14T14:32:27;1.90;;;0.40;;
81830;SDS011;71268;44.086;3.070;2023-12-14T14:34:56;1.45;;;0.45;;
81830;SDS011;71268;44.086;3.070;2023-12-14T14:37:23;1.00;;;0.50;;
81830;SDS011;71268;44.086;3.070;2023-12-14T14:39:50;1.08;;;0.43;;
81830;SDS011;71268;44.086;3.070;2023-12-14T14:42:16;1.58;;;0.52;;
81830;SDS011;71268;44.086;3.070;2023-12-14T14:44:42;1.15;;;0.50;;
81830;SDS011;71268;44.086;3.070;2023-12-14T14:47:09;0.90;;;0.43;;
81830;SDS011;71268;44.086;3.070;2023-12-14T14:49:35;0.55;;;0.28;;